Time;durP1;ratioP1;P1;durP2;ratioP2;P2;SDS_P1;SDS_P2;PMS_P1;PMS_P2;Temp;Humidity;BMP_temperature;BMP_pressure;BME280_temperature;BME280_humidity;BME280_pressure;Samples;Min_cycle;Max_cycle;Signal;HPM_P1;HPM_P2
2023/10/10 00:00:55;;;;;;;21.92;12.05;;;13.10;99.90;;;;;;5019658;28;20053;-55
2023/10/10 00:03:21;;;;;;;23.95;11.98;;;13.10;99.90;;;;;;5027540;28;20063;-54
2023/10/10 00:05:47;;;;;;;32.58;12.20;;;13.20;99.90;;;;;;5020412;28;20033;-58
2023/10/10 00:08:14;;;;;;;22.02;11.57;;;13.10;99.90;;;;;;5018257;28;20029;-56
2023/10/10 00:10:50;;;;;;;25.50;11.88;;;13.10;99.90;;;;;;5022311;28;20092;-58
2023/10/10 00:13:19;;;;;;;26.38;12.00;;;13.10;99.90;;;;;;5020535;28;20029;-56
2023/10/10 00:15:50;;;;;;;24.88;12.02;;;13.00;99.90;;;;;;5019796;28;20502;-56
2023/10/10 00:18:20;;;;;;;28.00;12.65;;;13.00;99.90;;;;;;5020110;28;20030;-56
2023/10/10 00:21:05;;;;;;;33.10;12.38;;;13.00;99.90;;;;;;5018077;28;20034;-60
2023/10/10 00:23:33;;;;;;;25.73;12.35;;;13.00;99.90;;;;;;5025166;28;20544;-55
2023/10/10 00:25:59;;;;;;;21.17;11.98;;;13.10;99.90;;;;;;5028329;28;20052;-56
2023/10/10 00:28:27;;;;;;;29.00;12.95;;;13.00;99.90;;;;;;5034277;28;20411;-59
2023/10/10 00:30:53;;;;;;;28.10;12.43;;;12.90;99.90;;;;;;5014438;28;20506;-57
2023/10/10 00:33:19;;;;;;;24.80;12.70;;;12.90;99.90;;;;;;5022819;28;20116;-57
2023/10/10 00:35:47;;;;;;;27.33;13.15;;;12.90;99.90;;;;;;5019052;28;20021;-58
2023/10/10 00:38:23;;;;;;;30.40;12.95;;;12.90;99.90;;;;;;5019480;28;20504;-61
2023/10/10 00:40:49;;;;;;;26.00;13.35;;;12.90;99.90;;;;;;5019767;28;20033;-59
2023/10/10 00:43:22;;;;;;;23.80;13.20;;;12.90;99.90;;;;;;5026083;28;20029;-56
2023/10/10 00:45:52;;;;;;;23.42;12.23;;;12.90;99.90;;;;;;5017127;28;20026;-59
2023/10/10 00:48:23;;;;;;;31.20;13.35;;;12.90;99.90;;;;;;5021230;28;20022;-59
2023/10/10 00:50:56;;;;;;;31.58;11.68;;;12.90;99.90;;;;;;5033823;28;20096;-56
2023/10/10 00:53:22;;;;;;;27.65;12.32;;;12.90;99.90;;;;;;5016984;28;20036;-54
2023/10/10 00:55:57;;;;;;;23.80;11.65;;;12.90;99.90;;;;;;5021959;28;20029;-60
2023/10/10 00:58:24;;;;;;;35.03;12.35;;;12.90;99.90;;;;;;5017528;28;20025;-55
2023/10/10 01:00:52;;;;;;;26.33;12.20;;;12.90;99.90;;;;;;5020837;28;20061;-58
2023/10/10 01:03:21;;;;;;;21.83;11.48;;;12.80;99.90;;;;;;5024435;28;20028;-58
2023/10/10 01:05:52;;;;;;;22.60;11.82;;;12.70;99.90;;;;;;5026830;28;20027;-59
2023/10/10 01:08:19;;;;;;;24.38;12.35;;;12.70;99.90;;;;;;5017246;28;20100;-53
2023/10/10 01:10:48;;;;;;;21.85;10.95;;;12.60;99.90;;;;;;5025536;28;20044;-57
2023/10/10 01:13:14;;;;;;;21.90;11.90;;;12.60;99.90;;;;;;5018925;28;20510;-53
2023/10/10 01:15:43;;;;;;;28.58;11.77;;;12.60;99.90;;;;;;5027981;28;20033;-55
2023/10/10 01:18:13;;;;;;;26.23;11.77;;;12.60;99.90;;;;;;5027039;28;20025;-56
2023/10/10 01:20:46;;;;;;;26.33;12.13;;;12.60;99.90;;;;;;5019273;28;20104;-59
2023/10/10 01:23:17;;;;;;;23.27;12.13;;;12.60;99.90;;;;;;5022202;28;20029;-59
2023/10/10 01:25:44;;;;;;;25.13;12.68;;;12.50;99.90;;;;;;5022767;28;20108;-57
2023/10/10 01:33:23;;;;;;;25.42;12.45;;;12.50;99.90;;;;;;5016358;28;20598;-58
2023/10/10 01:36:31;;;;;;;24.85;12.45;;;12.50;99.90;;;;;;5020893;28;20041;-58
2023/10/10 01:38:56;;;;;;;30.98;12.35;;;12.60;99.90;;;;;;5032042;28;20174;-57
2023/10/10 01:41:31;;;;;;;37.47;12.95;;;12.60;99.90;;;;;;5024732;28;20021;-58
2023/10/10 01:44:08;;;;;;;18.65;11.60;;;12.60;99.90;;;;;;5022959;28;20345;-56
2023/10/10 01:46:35;;;;;;;27.77;12.93;;;12.50;99.90;;;;;;5021798;28;20034;-55
2023/10/10 01:49:02;;;;;;;27.13;12.05;;;12.50;99.90;;;;;;5024928;28;20030;-56
2023/10/10 01:51:33;;;;;;;26.63;12.10;;;12.40;99.90;;;;;;5029300;28;20423;-58
2023/10/10 01:54:14;;;;;;;30.55;12.20;;;12.40;99.90;;;;;;5024185;28;20394;-57
2023/10/10 01:56:39;;;;;;;28.20;12.85;;;12.40;99.90;;;;;;5024418;28;20053;-59
2023/10/10 01:59:09;;;;;;;26.45;12.57;;;12.40;99.90;;;;;;5022709;28;20626;-59
2023/10/10 02:01:34;;;;;;;23.42;12.55;;;12.40;99.90;;;;;;5023150;28;20029;-56
2023/10/10 02:04:05;;;;;;;26.73;12.10;;;12.40;99.90;;;;;;5028697;28;20029;-59
2023/10/10 02:06:34;;;;;;;24.67;12.40;;;12.40;99.90;;;;;;5036436;28;20018;-59
2023/10/10 02:09:11;;;;;;;26.02;13.27;;;12.40;99.90;;;;;;5024450;28;20029;-55
2023/10/10 02:11:38;;;;;;;25.48;13.10;;;12.40;99.90;;;;;;5030084;28;20044;-56
2023/10/10 02:14:11;;;;;;;26.80;13.07;;;12.30;99.90;;;;;;5021818;28;20034;-58
2023/10/10 02:16:40;;;;;;;25.40;13.35;;;12.30;99.90;;;;;;5029939;28;20048;-58
2023/10/10 02:19:15;;;;;;;24.20;13.75;;;12.30;99.90;;;;;;5020018;28;20061;-58
2023/10/10 02:21:47;;;;;;;23.75;13.20;;;12.30;99.90;;;;;;5027096;28;20065;-58
2023/10/10 02:26:57;;;;;;;30.83;12.52;;;12.30;99.90;;;;;;5023302;28;20037;-57
2023/10/10 02:32:09;;;;;;;28.73;15.07;;;12.20;99.90;;;;;;5022575;28;20363;-55
2023/10/10 02:34:36;;;;;;;27.60;14.68;;;12.20;99.90;;;;;;5024302;28;20128;-56
2023/10/10 02:37:41;;;;;;;27.27;14.50;;;12.30;99.90;;;;;;5029336;28;20025;-56
2023/10/10 02:40:15;;;;;;;24.90;13.95;;;12.20;99.90;;;;;;5030449;28;20068;-57
2023/10/10 02:42:50;;;;;;;25.73;14.02;;;12.20;99.90;;;;;;5022852;28;20040;-55
2023/10/10 02:45:17;;;;;;;27.25;13.98;;;12.30;99.90;;;;;;5026364;28;20060;-61
2023/10/10 02:47:52;;;;;;;29.98;14.05;;;12.20;99.90;;;;;;5024997;28;20029;-57
2023/10/10 02:50:39;;;;;;;25.42;14.10;;;12.20;99.90;;;;;;5022799;28;20030;-59
2023/10/10 02:53:07;;;;;;;22.92;11.63;;;12.20;99.90;;;;;;5023056;28;20029;-55
2023/10/10 02:55:41;;;;;;;31.88;13.75;;;12.20;99.90;;;;;;5027942;28;20030;-56
2023/10/10 02:58:20;;;;;;;26.10;12.68;;;12.20;99.90;;;;;;5023687;28;20100;-57
2023/10/10 03:00:47;;;;;;;26.85;13.13;;;12.10;99.90;;;;;;5018671;28;20033;-56
2023/10/10 03:03:18;;;;;;;30.98;13.43;;;12.10;99.90;;;;;;5026888;28;20022;-55
2023/10/10 03:05:50;;;;;;;26.33;14.60;;;12.10;99.90;;;;;;5021209;28;20547;-56
2023/10/10 03:08:18;;;;;;;25.13;13.30;;;12.10;99.90;;;;;;5026266;28;20109;-56
2023/10/10 03:10:54;;;;;;;22.92;12.30;;;12.10;99.90;;;;;;5024207;28;20026;-57
2023/10/10 03:13:32;;;;;;;23.40;13.45;;;12.00;99.90;;;;;;5024252;28;20026;-55
2023/10/10 03:29:47;;;;;;;33.50;11.82;;;11.90;99.90;;;;;;5023181;28;20040;-56
2023/10/10 03:32:31;;;;;;;30.38;13.00;;;11.90;99.90;;;;;;5023609;28;20519;-58
2023/10/10 03:35:04;;;;;;;24.85;12.57;;;11.80;99.90;;;;;;5022779;28;20109;-54
2023/10/10 03:37:39;;;;;;;29.20;13.38;;;11.80;99.90;;;;;;5024371;28;20092;-57
2023/10/10 03:40:26;;;;;;;21.60;11.55;;;11.90;99.90;;;;;;5029005;28;20025;-56
2023/10/10 05:24:26;;;;;;;24.65;12.02;;;11.80;99.90;;;;;;5022470;28;20032;-56
2023/10/10 05:26:54;;;;;;;22.70;11.20;;;11.80;99.90;;;;;;5024049;28;20029;-58
2023/10/10 05:29:20;;;;;;;26.58;13.35;;;11.80;99.90;;;;;;5019953;28;20028;-54
2023/10/10 05:31:46;;;;;;;29.27;13.88;;;11.80;99.90;;;;;;5014910;28;20033;-55
2023/10/10 05:34:14;;;;;;;27.88;12.88;;;11.80;99.90;;;;;;5021682;28;20055;-54
2023/10/10 05:36:46;;;;;;;24.58;12.43;;;11.80;99.90;;;;;;5020866;28;20021;-54
2023/10/10 05:39:17;;;;;;;28.15;12.00;;;11.80;99.90;;;;;;5022920;28;20028;-54
2023/10/10 05:41:44;;;;;;;21.17;11.70;;;11.80;99.90;;;;;;5023060;28;20119;-52
2023/10/10 05:44:10;;;;;;;27.20;12.40;;;11.80;99.90;;;;;;5019844;28;20034;-53
2023/10/10 05:46:35;;;;;;;22.98;12.40;;;11.80;99.90;;;;;;5015952;28;20032;-56
2023/10/10 05:49:01;;;;;;;25.70;13.35;;;11.80;99.90;;;;;;5027913;28;20061;-55
2023/10/10 05:51:26;;;;;;;25.50;13.07;;;11.80;99.90;;;;;;5022597;28;20109;-57
2023/10/10 05:53:52;;;;;;;25.88;12.93;;;11.80;99.90;;;;;;5013495;28;20033;-56
2023/10/10 05:56:18;;;;;;;30.15;12.57;;;11.80;99.90;;;;;;5019210;28;20025;-58
2023/10/10 05:58:45;;;;;;;31.80;14.15;;;11.80;99.90;;;;;;5019501;28;20026;-56
2023/10/10 06:01:14;;;;;;;32.13;13.90;;;11.90;99.90;;;;;;5014487;28;20026;-55
2023/10/10 06:03:45;;;;;;;26.05;13.32;;;11.90;99.90;;;;;;5025790;28;20028;-56
2023/10/10 06:06:12;;;;;;;21.83;11.48;;;11.90;99.90;;;;;;5025015;28;20084;-57
2023/10/10 06:08:42;;;;;;;28.63;13.10;;;11.90;99.90;;;;;;5022543;28;20070;-54
2023/10/10 06:11:08;;;;;;;23.95;12.27;;;11.90;99.90;;;;;;5023469;28;20104;-55
2023/10/10 06:13:39;;;;;;;25.65;11.68;;;11.90;99.90;;;;;;5020718;28;20029;-53
2023/10/10 06:16:12;;;;;;;24.67;12.68;;;11.90;99.90;;;;;;5019042;28;20030;-57
2023/10/10 06:18:41;;;;;;;22.95;13.48;;;11.90;99.90;;;;;;5022973;28;20030;-56
2023/10/10 06:21:07;;;;;;;29.25;11.70;;;11.90;99.90;;;;;;5019336;28;20096;-58
2023/10/10 06:23:35;;;;;;;25.85;13.20;;;11.90;99.90;;;;;;5030947;28;20495;-56
2023/10/10 06:26:01;;;;;;;26.35;12.82;;;11.90;99.90;;;;;;5027572;28;20025;-56
2023/10/10 06:28:28;;;;;;;28.77;13.05;;;12.00;99.90;;;;;;5025462;28;20499;-54
2023/10/10 06:30:54;;;;;;;25.77;12.65;;;12.00;99.90;;;;;;5028494;28;20035;-58
2023/10/10 06:33:27;;;;;;;30.35;12.88;;;12.00;99.90;;;;;;5021396;28;20030;-54
2023/10/10 06:41:35;;;;;;;23.38;12.52;;;12.10;99.90;;;;;;5026028;28;20049;-55
2023/10/10 06:44:01;;;;;;;25.95;13.18;;;12.20;99.90;;;;;;5018347;28;20087;-54
2023/10/10 06:46:32;;;;;;;32.05;14.02;;;12.10;99.90;;;;;;5030391;28;20500;-53
2023/10/10 06:49:04;;;;;;;25.85;13.13;;;12.20;99.90;;;;;;5023697;28;20407;-52
2023/10/10 06:51:30;;;;;;;30.23;13.25;;;12.20;99.90;;;;;;5022551;28;20026;-52
2023/10/10 06:53:56;;;;;;;30.42;13.65;;;12.30;99.90;;;;;;5023774;28;20040;-53
2023/10/10 06:56:44;;;;;;;32.30;13.85;;;12.30;99.90;;;;;;5019689;28;20029;-52
2023/10/10 06:59:16;;;;;;;30.55;13.50;;;12.40;99.90;;;;;;5026266;28;20033;-57
2023/10/10 07:01:48;;;;;;;28.35;13.82;;;12.50;99.90;;;;;;5024384;28;20029;-59
2023/10/10 07:04:15;;;;;;;25.70;12.43;;;12.50;99.90;;;;;;5025162;28;20025;-55
2023/10/10 07:06:44;;;;;;;25.83;13.43;;;12.60;99.90;;;;;;5015931;28;20050;-59
2023/10/10 07:09:29;;;;;;;30.70;14.05;;;12.70;99.90;;;;;;5024835;28;20040;-58
2023/10/10 07:11:56;;;;;;;;;;;12.80;99.90;;;;;;5024211;28;20474;-56
2023/10/10 07:14:25;;;;;;;27.27;12.80;;;12.80;99.90;;;;;;5024768;28;19932;-54
2023/10/10 07:16:54;;;;;;;28.98;13.63;;;12.90;99.90;;;;;;5024686;28;20034;-59
2023/10/10 07:19:21;;;;;;;22.13;11.63;;;13.00;99.90;;;;;;5025531;28;20045;-56
2023/10/10 07:21:47;;;;;;;28.23;13.32;;;13.10;99.90;;;;;;5022651;28;20032;-57
2023/10/10 07:24:14;;;;;;;25.60;13.70;;;13.20;99.90;;;;;;5025679;28;20038;-59
2023/10/10 07:26:41;;;;;;;26.80;13.55;;;13.30;99.90;;;;;;5021740;28;20181;-58
2023/10/10 07:29:27;;;;;;;36.92;14.65;;;13.30;99.90;;;;;;5020629;28;20113;-57
2023/10/10 07:32:07;;;;;;;29.33;12.93;;;13.40;99.90;;;;;;5017991;28;20033;-56
2023/10/10 07:34:37;;;;;;;27.95;12.88;;;13.50;99.90;;;;;;5025864;28;20037;-56
2023/10/10 07:37:08;;;;;;;31.65;13.38;;;13.60;99.90;;;;;;5024535;28;20274;-59
2023/10/10 07:39:35;;;;;;;32.55;13.50;;;13.60;99.90;;;;;;5030345;28;20108;-59
2023/10/10 07:42:01;;;;;;;30.52;13.90;;;13.70;99.90;;;;;;5023044;28;20064;-55
2023/10/10 07:44:30;;;;;;;27.67;12.27;;;13.80;99.90;;;;;;5019180;28;20092;-56
2023/10/10 07:49:40;;;;;;;22.77;12.35;;;13.90;99.90;;;;;;5022365;28;20522;-51
2023/10/10 07:52:05;;;;;;;24.25;11.57;;;14.00;99.90;;;;;;5020712;28;20034;-53
2023/10/10 07:55:15;;;;;;;23.40;12.10;;;14.00;99.90;;;;;;5025230;28;20105;-56
2023/10/10 07:57:26;;;;;;;24.42;12.52;;;14.10;99.90;;;;;;5021606;28;20143;-54
2023/10/10 07:59:57;;;;;;;24.13;11.18;;;14.10;99.90;;;;;;5024936;28;20476;-59
2023/10/10 08:04:58;;;;;;;23.15;11.30;;;14.30;99.90;;;;;;5022740;28;20381;-59
2023/10/10 08:07:24;;;;;;;25.33;12.55;;;14.40;99.90;;;;;;5025850;28;20036;-56
2023/10/10 08:10:11;;;;;;;22.27;11.77;;;14.50;99.90;;;;;;5021396;28;20496;-55
2023/10/10 08:12:39;;;;;;;24.67;11.45;;;14.50;99.90;;;;;;5021238;28;20407;-59
2023/10/10 08:15:19;;;;;;;22.35;11.20;;;14.60;99.90;;;;;;5024083;28;20030;-53
2023/10/10 08:17:54;;;;;;;24.70;11.82;;;14.70;99.90;;;;;;5024093;28;20499;-58
2023/10/10 08:23:07;;;;;;;22.52;11.40;;;14.90;99.90;;;;;;5023596;28;20388;-57
2023/10/10 08:25:33;;;;;;;28.60;12.73;;;15.00;99.90;;;;;;5024913;28;20026;-59
2023/10/10 08:28:00;;;;;;;22.85;11.18;;;15.10;99.90;;;;;;5025690;28;20507;-56
2023/10/10 08:30:27;;;;;;;23.33;10.18;;;15.20;99.90;;;;;;5020831;28;20180;-58
2023/10/10 08:32:54;;;;;;;21.17;10.32;;;15.30;99.90;;;;;;5023365;28;20113;-58
2023/10/10 08:35:19;;;;;;;22.10;10.73;;;15.40;99.90;;;;;;5019615;28;20129;-60
2023/10/10 08:37:45;;;;;;;29.08;10.93;;;15.50;99.90;;;;;;5022389;28;20548;-57
2023/10/10 08:40:19;;;;;;;20.42;10.27;;;15.60;99.90;;;;;;5018811;28;20033;-60
2023/10/10 08:42:51;;;;;;;;;;;15.80;99.90;;;;;;5024391;28;20022;-60
2023/10/10 08:45:24;;;;;;;25.95;11.10;;;15.90;99.90;;;;;;5019402;28;20329;-56
2023/10/10 08:48:00;;;;;;;27.00;11.10;;;16.10;99.90;;;;;;5022117;28;20065;-57
2023/10/10 08:50:27;;;;;;;21.55;10.05;;;16.30;99.90;;;;;;5021221;28;20131;-57
2023/10/10 08:52:52;;;;;;;23.20;9.70;;;16.40;99.90;;;;;;5025272;28;20109;-58
2023/10/10 08:55:26;;;;;;;22.67;9.75;;;16.50;99.90;;;;;;5023971;28;20113;-54
2023/10/10 08:57:52;;;;;;;23.38;10.25;;;16.60;99.90;;;;;;5025629;28;20030;-52
2023/10/10 09:00:18;;;;;;;21.55;9.20;;;16.80;99.90;;;;;;5022410;28;20021;-53
2023/10/10 09:02:48;;;;;;;21.63;8.82;;;16.90;99.90;;;;;;5019255;28;20049;-57
2023/10/10 09:05:15;;;;;;;20.65;9.02;;;17.10;99.90;;;;;;5025768;28;20087;-60
2023/10/10 09:07:43;;;;;;;18.17;8.55;;;17.20;99.90;;;;;;5020211;28;20053;-57
2023/10/10 09:10:13;;;;;;;18.90;9.02;;;17.30;99.90;;;;;;5025415;28;20045;-60
2023/10/10 09:12:55;;;;;;;20.13;8.68;;;17.40;99.90;;;;;;5022964;28;20029;-51
2023/10/10 09:15:21;;;;;;;18.83;8.52;;;17.60;99.90;;;;;;5020388;28;20026;-56
2023/10/10 09:17:48;;;;;;;16.95;7.88;;;17.70;99.90;;;;;;5017469;28;20041;-54
2023/10/10 09:20:30;;;;;;;20.50;8.38;;;17.80;99.90;;;;;;5020807;28;20479;-57
2023/10/10 09:23:11;;;;;;;18.50;8.85;;;17.90;99.90;;;;;;5022854;28;20083;-56
2023/10/10 09:25:57;;;;;;;17.40;8.68;;;18.00;99.90;;;;;;5022031;28;20128;-57
2023/10/10 09:28:30;;;;;;;18.05;8.07;;;18.10;99.90;;;;;;5027064;28;20037;-55
2023/10/10 09:31:02;;;;;;;16.88;7.85;;;18.20;99.90;;;;;;5014557;28;20063;-57
2023/10/10 09:33:30;;;;;;;17.38;8.15;;;18.30;99.90;;;;;;5023003;28;20036;-56
2023/10/10 09:36:08;;;;;;;21.42;8.55;;;18.40;99.90;;;;;;5019558;28;20022;-57
2023/10/10 09:38:45;;;;;;;14.23;7.30;;;18.50;99.90;;;;;;5015739;28;20400;-58
2023/10/10 09:41:26;;;;;;;18.42;6.95;;;18.50;99.90;;;;;;5021851;28;20026;-56
2023/10/10 09:50:00;;;;;;;20.08;7.18;;;19.00;99.90;;;;;;5023288;28;20518;-54
2023/10/10 09:58:01;;;;;;;17.25;8.02;;;19.20;99.90;;;;;;5027590;28;20380;-56
2023/10/10 10:06:27;;;;;;;23.77;7.72;;;19.50;99.90;;;;;;5022602;28;20029;-59
2023/10/10 10:09:17;;;;;;;20.13;8.23;;;19.60;99.90;;;;;;5022641;28;20088;-60
2023/10/10 10:12:08;;;;;;;13.52;6.55;;;19.70;99.90;;;;;;5023157;28;20471;-54
2023/10/10 10:14:47;;;;;;;16.40;6.97;;;19.80;99.90;;;;;;5019379;28;20496;-56
2023/10/10 10:17:44;;;;;;;13.43;6.65;;;19.80;99.90;;;;;;5029779;28;20032;-58
2023/10/10 10:20:20;;;;;;;14.57;6.75;;;19.90;99.90;;;;;;5022764;28;20491;-57
2023/10/10 10:22:48;;;;;;;20.50;7.63;;;20.00;99.90;;;;;;5023203;28;20044;-57
2023/10/10 10:25:22;;;;;;;13.50;7.18;;;20.10;99.90;;;;;;5024131;28;20109;-58
2023/10/10 10:27:53;;;;;;;14.47;6.90;;;20.10;99.90;;;;;;5022877;28;20013;-58
2023/10/10 10:32:51;;;;;;;19.85;7.32;;;20.20;99.90;;;;;;5024368;28;20044;-57
2023/10/10 10:35:22;;;;;;;19.10;7.65;;;20.40;99.90;;;;;;5028853;28;20446;-58
2023/10/10 10:38:00;;;;;;;16.45;7.03;;;20.40;99.90;;;;;;5018994;28;20030;-55
2023/10/10 10:40:43;;;;;;;20.90;7.30;;;20.50;99.90;;;;;;5022047;28;20026;-57
2023/10/10 10:43:16;;;;;;;11.50;5.72;;;20.50;99.90;;;;;;5020350;28;20388;-57
2023/10/10 10:45:51;;;;;;;18.05;6.00;;;20.60;99.90;;;;;;5027538;28;20049;-61
2023/10/10 10:48:35;;;;;;;15.23;7.07;;;20.70;99.90;;;;;;5025215;28;20554;-57
2023/10/10 10:51:26;;;;;;;14.88;6.57;;;20.90;99.90;;;;;;5023857;28;20479;-58
2023/10/10 10:53:58;;;;;;;14.77;6.88;;;21.10;99.90;;;;;;5025875;28;20021;-61
2023/10/10 10:59:20;;;;;;;21.88;6.45;;;21.20;99.90;;;;;;5017558;28;20038;-56
2023/10/10 11:01:57;;;;;;;18.58;6.43;;;21.30;99.90;;;;;;5017882;28;20041;-59
2023/10/10 11:07:01;;;;;;;12.80;5.45;;;21.70;99.90;;;;;;5021709;28;20030;-52
2023/10/10 11:09:28;;;;;;;14.80;6.45;;;21.80;99.90;;;;;;5026268;28;20021;-59
2023/10/10 11:12:01;;;;;;;17.83;6.32;;;22.00;99.90;;;;;;5019326;28;20441;-57
2023/10/10 11:14:29;;;;;;;13.70;6.03;;;22.10;99.90;;;;;;5023593;28;20026;-59
2023/10/10 11:16:58;;;;;;;15.13;6.07;;;22.30;99.90;;;;;;5020112;28;20026;-59
2023/10/10 11:22:00;;;;;;;14.05;5.75;;;22.50;99.90;;;;;;5018681;28;20025;-59
2023/10/10 11:24:30;;;;;;;14.73;6.72;;;22.70;99.90;;;;;;5011265;28;20045;-59
2023/10/10 11:27:14;;;;;;;15.85;5.35;;;22.80;99.90;;;;;;5016486;28;20492;-59
2023/10/10 11:29:50;;;;;;;10.85;5.60;;;23.00;99.90;;;;;;5017198;28;20029;-60
2023/10/10 11:32:24;;;;;;;15.15;6.30;;;23.00;99.90;;;;;;5025120;28;20388;-60
2023/10/10 11:34:57;;;;;;;14.52;5.85;;;23.20;99.90;;;;;;5017254;28;20099;-60
2023/10/10 11:37:26;;;;;;;12.65;5.10;;;23.60;99.90;;;;;;5028257;28;20022;-60
2023/10/10 11:40:19;;;;;;;14.98;6.38;;;23.70;99.90;;;;;;5028778;28;20029;-60
2023/10/10 11:42:47;;;;;;;14.13;5.95;;;24.00;99.90;;;;;;5013307;28;20030;-60
2023/10/10 11:45:19;;;;;;;17.75;6.25;;;24.00;99.90;;;;;;5015560;28;20098;-60
2023/10/10 11:47:47;;;;;;;14.82;5.57;;;24.50;99.90;;;;;;5022179;28;20041;-60
2023/10/10 11:50:15;;;;;;;14.50;5.68;;;24.70;99.90;;;;;;5022107;28;20558;-59
2023/10/10 11:52:56;;;;;;;15.65;5.95;;;24.60;99.90;;;;;;5021901;28;20484;-59
2023/10/10 11:55:22;;;;;;;13.63;5.78;;;24.50;99.90;;;;;;5017993;28;20496;-58
2023/10/10 12:01:17;;;;;;;11.70;5.35;;;24.70;99.90;;;;;;5027619;28;20040;-58
2023/10/10 12:03:42;;;;;;;12.65;5.47;;;24.90;99.90;;;;;;5029579;28;20470;-57
2023/10/10 12:06:17;;;;;;;13.30;6.18;;;24.90;99.90;;;;;;5027035;28;20109;-59
2023/10/10 12:08:45;;;;;;;14.90;4.93;;;24.90;99.90;;;;;;5024282;28;20045;-59
2023/10/10 12:11:20;;;;;;;15.45;5.70;;;25.20;99.90;;;;;;5019493;28;20561;-59
2023/10/10 12:13:53;;;;;;;13.88;5.85;;;25.40;99.90;;;;;;5018817;28;20037;-59
2023/10/10 12:16:23;;;;;;;14.38;6.40;;;25.40;99.90;;;;;;5030451;28;20025;-58
2023/10/10 12:18:52;;;;;;;16.10;5.32;;;25.50;99.90;;;;;;5025541;28;20057;-58
2023/10/10 12:21:20;;;;;;;9.85;5.07;;;25.70;99.90;;;;;;5027081;28;20025;-57
2023/10/10 12:23:48;;;;;;;11.90;5.35;;;25.60;99.90;;;;;;5030818;28;20488;-58
2023/10/10 12:26:14;;;;;;;15.00;5.80;;;25.80;99.90;;;;;;5026574;28;20033;-57
2023/10/10 12:28:39;;;;;;;19.60;6.35;;;25.60;99.90;;;;;;5027639;28;20342;-58
2023/10/10 12:31:08;;;;;;;18.45;5.95;;;25.20;99.90;;;;;;5020815;28;20441;-59
2023/10/10 12:33:36;;;;;;;18.02;6.15;;;24.80;99.90;;;;;;5027743;28;20114;-59
2023/10/10 12:36:09;;;;;;;15.60;5.30;;;25.10;99.90;;;;;;5019875;28;20172;-58
2023/10/10 12:38:37;;;;;;;19.55;6.25;;;25.40;99.90;;;;;;5019563;28;20040;-60
2023/10/10 12:41:05;;;;;;;13.70;5.28;;;25.50;99.90;;;;;;5024849;28;20114;-59
2023/10/10 12:43:30;;;;;;;13.32;6.10;;;25.60;99.90;;;;;;5029677;28;20399;-59
2023/10/10 12:45:56;;;;;;;18.20;5.32;;;25.80;99.90;;;;;;5021674;28;20029;-59
2023/10/10 12:48:21;;;;;;;14.63;5.35;;;26.00;99.90;;;;;;5025648;28;20558;-59
2023/10/10 12:50:51;;;;;;;13.93;5.63;;;26.20;99.90;;;;;;5018172;28;20424;-59
2023/10/10 12:53:20;;;;;;;17.90;5.13;;;26.30;99.90;;;;;;5029203;28;20029;-60
2023/10/10 12:55:52;;;;;;;16.08;6.13;;;26.20;99.90;;;;;;5029380;28;20391;-58
2023/10/10 12:58:22;;;;;;;11.82;5.43;;;26.60;99.90;;;;;;5023652;28;20025;-55
2023/10/10 13:00:52;;;;;;;8.65;5.25;;;26.80;99.90;;;;;;5027493;28;20025;-56
2023/10/10 13:03:29;;;;;;;12.02;5.53;;;27.00;99.90;;;;;;5026503;28;20049;-54
2023/10/10 13:05:58;;;;;;;16.83;5.20;;;26.90;99.90;;;;;;5024281;28;20536;-59
2023/10/10 13:11:20;;;;;;;13.45;4.95;;;26.80;99.90;;;;;;5023203;28;20119;-57
2023/10/10 13:13:59;;;;;;;14.15;5.15;;;27.10;99.90;;;;;;5016424;28;20029;-56
2023/10/10 13:16:37;;;;;;;16.35;5.32;;;27.20;99.90;;;;;;5019853;28;20095;-56
2023/10/10 13:19:07;;;;;;;20.17;5.78;;;26.90;99.90;;;;;;5024736;28;20112;-57
2023/10/10 13:21:38;;;;;;;13.60;4.80;;;27.10;99.90;;;;;;5019864;28;20028;-54
2023/10/10 13:24:09;;;;;;;11.05;4.82;;;27.20;97.60;;;;;;5021673;28;20045;-59
2023/10/10 13:26:36;;;;;;;18.70;6.20;;;27.20;99.00;;;;;;5023217;28;20071;-58
2023/10/10 13:29:02;;;;;;;9.95;5.25;;;27.50;99.90;;;;;;5018324;28;20442;-57
2023/10/10 13:31:29;;;;;;;18.42;5.45;;;27.20;92.70;;;;;;5018796;28;20030;-59
2023/10/10 13:33:55;;;;;;;14.50;5.30;;;27.50;91.60;;;;;;5018591;28;20037;-59
2023/10/10 13:36:21;;;;;;;15.35;5.05;;;27.40;93.90;;;;;;5017152;28;20040;-57
2023/10/10 13:38:53;;;;;;;15.32;5.35;;;27.30;91.40;;;;;;5019667;28;20117;-59
2023/10/10 13:41:22;;;;;;;13.65;5.03;;;27.20;93.60;;;;;;5017955;28;20026;-58
2023/10/10 13:43:50;;;;;;;13.50;5.50;;;27.20;87.60;;;;;;5026038;28;20021;-59
2023/10/10 13:46:22;;;;;;;33.13;5.15;;;27.40;85.00;;;;;;5022104;28;20030;-59
2023/10/10 13:48:48;;;;;;;18.98;5.28;;;27.40;83.90;;;;;;5028966;28;20068;-57
2023/10/10 13:51:15;;;;;;;17.92;5.22;;;27.40;82.90;;;;;;5017733;28;20062;-59
2023/10/10 13:53:43;;;;;;;13.95;4.43;;;27.30;91.70;;;;;;5024178;28;20467;-57
2023/10/10 13:56:10;;;;;;;16.95;5.53;;;27.30;87.50;;;;;;5022168;28;20484;-58
2023/10/10 13:58:36;;;;;;;15.25;5.25;;;27.20;84.00;;;;;;5030161;28;20025;-59
2023/10/10 14:01:18;;;;;;;13.77;4.60;;;27.00;92.10;;;;;;5012592;28;20034;-60
2023/10/10 14:03:46;;;;;;;18.10;5.32;;;26.90;90.80;;;;;;5029123;28;20111;-59
2023/10/10 14:06:26;;;;;;;12.98;5.10;;;26.90;90.40;;;;;;5015529;28;20490;-60
2023/10/10 14:08:52;;;;;;;17.38;5.05;;;26.60;92.50;;;;;;5019632;28;20116;-59
2023/10/10 14:11:20;;;;;;;16.88;5.15;;;26.40;94.00;;;;;;5019388;28;20466;-59
2023/10/10 14:13:48;;;;;;;12.68;5.15;;;26.40;91.50;;;;;;5023444;28;20534;-59
2023/10/10 14:16:14;;;;;;;15.45;5.10;;;26.20;91.70;;;;;;5024013;28;20095;-60
2023/10/10 14:18:46;;;;;;;15.18;5.43;;;26.10;90.20;;;;;;5023203;28;20504;-59
2023/10/10 14:21:13;;;;;;;15.80;5.20;;;26.10;91.70;;;;;;5021083;28;20391;-58
2023/10/10 14:23:40;;;;;;;11.38;4.88;;;26.20;90.30;;;;;;5022414;28;20462;-60
2023/10/10 14:26:13;;;;;;;9.98;4.68;;;26.30;85.10;;;;;;5023588;28;20021;-59
2023/10/10 14:28:50;;;;;;;10.38;5.32;;;26.30;82.90;;;;;;5023109;28;20124;-60
2023/10/10 14:31:17;;;;;;;17.48;5.43;;;26.30;82.30;;;;;;5023128;28;20033;-60
2023/10/10 14:33:43;;;;;;;10.23;5.05;;;26.30;79.70;;;;;;5026618;28;20116;-59
2023/10/10 14:36:13;;;;;;;14.90;5.03;;;26.30;79.50;;;;;;5023014;28;20029;-57
2023/10/10 14:38:45;;;;;;;9.63;4.68;;;26.30;79.60;;;;;;5024073;28;20057;-56
2023/10/10 14:41:16;;;;;;;9.75;5.57;;;26.10;80.70;;;;;;5025799;28;20363;-58
2023/10/10 14:43:47;;;;;;;10.20;5.07;;;26.20;83.00;;;;;;5022312;28;20026;-57
2023/10/10 14:46:21;;;;;;;18.27;6.15;;;25.90;86.40;;;;;;5021318;28;20041;-58
2023/10/10 14:49:00;;;;;;;;;;;26.00;81.40;;;;;;5020649;28;20065;-55
2023/10/10 14:51:33;;;;;;;11.25;5.68;;;25.80;91.20;;;;;;5022839;28;19916;-59
2023/10/10 14:54:05;;;;;;;15.77;6.07;;;25.70;83.20;;;;;;5020116;28;20396;-59
2023/10/10 14:56:35;;;;;;;9.05;5.07;;;25.50;89.20;;;;;;5021560;28;20061;-60
2023/10/10 14:59:06;;;;;;;13.90;5.68;;;25.50;85.60;;;;;;5024604;28;20547;-59
2023/10/10 15:01:34;;;;;;;9.90;5.30;;;25.60;84.60;;;;;;5018921;28;20399;-59
2023/10/10 15:04:02;;;;;;;9.02;5.22;;;25.60;85.30;;;;;;5021452;28;20030;-59
2023/10/10 15:06:29;;;;;;;12.38;5.55;;;25.60;85.30;;;;;;5021969;28;20457;-59
2023/10/10 15:08:55;;;;;;;14.45;6.20;;;25.60;85.00;;;;;;5023143;28;20033;-57
2023/10/10 15:11:29;;;;;;;13.38;5.57;;;25.50;85.80;;;;;;5016448;28;20037;-59
2023/10/10 15:13:56;;;;;;;14.50;5.60;;;25.50;86.30;;;;;;5024944;28;20029;-59
2023/10/10 15:16:23;;;;;;;20.45;6.57;;;25.40;89.70;;;;;;5017320;28;20026;-59
2023/10/10 15:18:52;;;;;;;13.73;5.55;;;25.20;88.90;;;;;;5021871;28;20033;-59
2023/10/10 15:21:18;;;;;;;9.57;4.72;;;25.30;89.20;;;;;;5017784;28;20415;-58
2023/10/10 15:23:46;;;;;;;11.32;4.38;;;25.10;92.20;;;;;;5023915;28;20029;-59
2023/10/10 15:26:17;;;;;;;14.00;5.05;;;25.10;88.90;;;;;;5021042;28;20022;-59
2023/10/10 15:28:44;;;;;;;13.38;5.20;;;25.10;91.20;;;;;;5020707;28;20033;-59
2023/10/10 15:31:10;;;;;;;12.77;4.85;;;25.10;90.00;;;;;;5021031;28;20042;-59
2023/10/10 15:33:36;;;;;;;11.35;5.18;;;25.00;90.60;;;;;;5014327;28;20049;-59
2023/10/10 15:36:06;;;;;;;13.55;5.07;;;25.00;92.30;;;;;;5024371;28;20025;-58
2023/10/10 15:38:32;;;;;;;11.98;4.85;;;24.80;94.00;;;;;;5018162;28;20442;-60
2023/10/10 15:40:58;;;;;;;12.80;4.90;;;24.40;96.70;;;;;;5027444;28;20091;-59
2023/10/10 15:43:25;;;;;;;11.32;5.00;;;24.00;99.90;;;;;;5020239;28;20103;-59
2023/10/10 15:45:50;;;;;;;18.58;5.40;;;23.70;99.90;;;;;;5016731;28;20037;-58